sensor_id;sensor_type;location;lat;lon;timestamp;P1;durP1;ratioP1;P2;durP2;ratioP2
21769;SDS011;11046;49.558;8.674;2022-08-18T00:03:00;8.52;;;7.25;;
21769;SDS011;11046;49.558;8.674;2022-08-18T00:06:14;9.15;;;7.22;;
21769;SDS011;11046;49.558;8.674;2022-08-18T00:09:16;8.20;;;7.30;;
21769;SDS011;11046;49.558;8.674;2022-08-18T00:12:18;9.93;;;7.28;;
21769;SDS011;11046;49.558;8.674;2022-08-18T00:15:23;9.30;;;7.05;;
21769;SDS011;11046;49.558;8.674;2022-08-18T00:18:24;9.35;;;6.95;;
21769;SDS011;11046;49.558;8.674;2022-08-18T00:21:25;9.43;;;6.88;;
21769;SDS011;11046;49.558;8.674;2022-08-18T00:24:26;8.80;;;6.88;;
21769;SDS011;11046;49.558;8.674;2022-08-18T00:27:29;8.18;;;6.70;;
21769;SDS011;11046;49.558;8.674;2022-08-18T00:30:30;7.75;;;6.40;;
21769;SDS011;11046;49.558;8.674;2022-08-18T00:33:31;10.18;;;6.60;;
21769;SDS011;11046;49.558;8.674;2022-08-18T00:36:31;10.02;;;6.57;;
21769;SDS011;11046;49.558;8.674;2022-08-18T00:39:33;8.15;;;6.15;;
21769;SDS011;11046;49.558;8.674;2022-08-18T00:42:36;9.27;;;6.43;;
21769;SDS011;11046;49.558;8.674;2022-08-18T00:45:43;9.55;;;6.25;;
21769;SDS011;11046;49.558;8.674;2022-08-18T00:48:44;7.50;;;5.57;;
21769;SDS011;11046;49.558;8.674;2022-08-18T00:51:46;8.73;;;5.97;;
21769;SDS011;11046;49.558;8.674;2022-08-18T00:54:49;9.18;;;5.72;;
21769;SDS011;11046;49.558;8.674;2022-08-18T00:57:53;6.72;;;5.20;;
21769;SDS011;11046;49.558;8.674;2022-08-18T01:00:56;6.78;;;5.03;;
21769;SDS011;11046;49.558;8.674;2022-08-18T01:04:04;7.03;;;5.10;;
21769;SDS011;11046;49.558;8.674;2022-08-18T01:07:13;9.55;;;5.40;;
21769;SDS011;11046;49.558;8.674;2022-08-18T01:10:20;6.22;;;4.90;;
21769;SDS011;11046;49.558;8.674;2022-08-18T01:13:24;9.65;;;5.30;;
21769;SDS011;11046;49.558;8.674;2022-08-18T01:16:28;6.53;;;5.32;;
21769;SDS011;11046;49.558;8.674;2022-08-18T01:19:48;6.95;;;5.70;;
21769;SDS011;11046;49.558;8.674;2022-08-18T01:23:12;5.95;;;4.90;;
21769;SDS011;11046;49.558;8.674;2022-08-18T01:26:16;7.22;;;4.90;;
21769;SDS011;11046;49.558;8.674;2022-08-18T01:29:18;7.07;;;5.90;;
21769;SDS011;11046;49.558;8.674;2022-08-18T01:32:20;8.60;;;5.25;;
21769;SDS011;11046;49.558;8.674;2022-08-18T01:35:22;7.72;;;5.07;;
21769;SDS011;11046;49.558;8.674;2022-08-18T01:38:24;9.07;;;6.10;;
21769;SDS011;11046;49.558;8.674;2022-08-18T01:41:25;6.72;;;4.97;;
21769;SDS011;11046;49.558;8.674;2022-08-18T01:44:26;6.00;;;5.40;;
21769;SDS011;11046;49.558;8.674;2022-08-18T01:47:26;6.55;;;5.00;;
21769;SDS011;11046;49.558;8.674;2022-08-18T01:50:27;7.65;;;5.10;;
21769;SDS011;11046;49.558;8.674;2022-08-18T01:53:29;6.68;;;5.25;;
21769;SDS011;11046;49.558;8.674;2022-08-18T01:56:30;6.38;;;4.80;;
21769;SDS011;11046;49.558;8.674;2022-08-18T01:59:31;10.38;;;5.00;;
21769;SDS011;11046;49.558;8.674;2022-08-18T02:02:34;6.50;;;4.93;;
21769;SDS011;11046;49.558;8.674;2022-08-18T02:05:36;5.75;;;5.15;;
21769;SDS011;11046;49.558;8.674;2022-08-18T02:08:40;6.47;;;4.88;;
21769;SDS011;11046;49.558;8.674;2022-08-18T02:11:40;6.47;;;5.05;;
21769;SDS011;11046;49.558;8.674;2022-08-18T02:14:41;9.77;;;5.15;;
21769;SDS011;11046;49.558;8.674;2022-08-18T02:17:43;6.30;;;5.05;;
21769;SDS011;11046;49.558;8.674;2022-08-18T02:20:44;7.22;;;5.30;;
21769;SDS011;11046;49.558;8.674;2022-08-18T02:23:47;6.65;;;5.03;;
21769;SDS011;11046;49.558;8.674;2022-08-18T02:26:47;7.30;;;5.05;;
21769;SDS011;11046;49.558;8.674;2022-08-18T02:29:48;7.72;;;5.32;;
21769;SDS011;11046;49.558;8.674;2022-08-18T02:32:48;6.43;;;4.88;;
21769;SDS011;11046;49.558;8.674;2022-08-18T02:35:52;5.93;;;4.93;;
21769;SDS011;11046;49.558;8.674;2022-08-18T02:38:53;7.20;;;5.10;;
21769;SDS011;11046;49.558;8.674;2022-08-18T02:41:54;7.25;;;5.07;;
21769;SDS011;11046;49.558;8.674;2022-08-18T02:44:55;7.70;;;5.18;;
21769;SDS011;11046;49.558;8.674;2022-08-18T02:47:55;6.40;;;4.97;;
21769;SDS011;11046;49.558;8.674;2022-08-18T02:51:01;7.65;;;4.70;;
21769;SDS011;11046;49.558;8.674;2022-08-18T02:54:04;7.80;;;5.32;;
21769;SDS011;11046;49.558;8.674;2022-08-18T02:57:09;6.32;;;5.28;;
21769;SDS011;11046;49.558;8.674;2022-08-18T03:00:11;7.50;;;4.63;;
21769;SDS011;11046;49.558;8.674;2022-08-18T03:03:14;7.50;;;5.28;;
21769;SDS011;11046;49.558;8.674;2022-08-18T03:06:16;8.77;;;5.10;;
21769;SDS011;11046;49.558;8.674;2022-08-18T03:09:18;7.93;;;5.20;;
21769;SDS011;11046;49.558;8.674;2022-08-18T03:12:18;5.30;;;4.50;;
21769;SDS011;11046;49.558;8.674;2022-08-18T03:15:19;5.22;;;4.72;;
21769;SDS011;11046;49.558;8.674;2022-08-18T03:18:19;11.25;;;5.32;;
21769;SDS011;11046;49.558;8.674;2022-08-18T03:21:23;6.78;;;4.80;;
21769;SDS011;11046;49.558;8.674;2022-08-18T03:24:25;9.45;;;5.05;;
21769;SDS011;11046;49.558;8.674;2022-08-18T03:27:27;7.10;;;4.43;;
21769;SDS011;11046;49.558;8.674;2022-08-18T03:30:28;6.00;;;4.80;;
21769;SDS011;11046;49.558;8.674;2022-08-18T03:33:28;6.53;;;4.93;;
21769;SDS011;11046;49.558;8.674;2022-08-18T03:36:30;5.55;;;4.63;;
21769;SDS011;11046;49.558;8.674;2022-08-18T03:39:32;6.90;;;4.97;;
21769;SDS011;11046;49.558;8.674;2022-08-18T03:42:32;7.95;;;5.03;;
21769;SDS011;11046;49.558;8.674;2022-08-18T03:45:33;7.53;;;4.90;;
21769;SDS011;11046;49.558;8.674;2022-08-18T03:48:34;6.13;;;5.05;;
21769;SDS011;11046;49.558;8.674;2022-08-18T03:51:37;8.68;;;5.15;;
21769;SDS011;11046;49.558;8.674;2022-08-18T03:54:40;6.45;;;4.90;;
21769;SDS011;11046;49.558;8.674;2022-08-18T03:57:41;9.73;;;5.47;;
21769;SDS011;11046;49.558;8.674;2022-08-18T04:00:44;5.82;;;4.57;;
21769;SDS011;11046;49.558;8.674;2022-08-18T04:03:45;5.28;;;4.65;;
21769;SDS011;11046;49.558;8.674;2022-08-18T04:07:00;6.20;;;4.60;;
21769;SDS011;11046;49.558;8.674;2022-08-18T04:10:05;5.90;;;4.97;;
21769;SDS011;11046;49.558;8.674;2022-08-18T04:13:06;8.43;;;5.30;;
21769;SDS011;11046;49.558;8.674;2022-08-18T04:16:06;5.50;;;4.70;;
21769;SDS011;11046;49.558;8.674;2022-08-18T04:19:07;8.23;;;5.00;;
21769;SDS011;11046;49.558;8.674;2022-08-18T04:22:09;10.35;;;5.45;;
21769;SDS011;11046;49.558;8.674;2022-08-18T04:25:10;9.85;;;5.22;;
21769;SDS011;11046;49.558;8.674;2022-08-18T04:28:11;7.95;;;5.18;;
21769;SDS011;11046;49.558;8.674;2022-08-18T04:31:13;7.72;;;5.60;;
21769;SDS011;11046;49.558;8.674;2022-08-18T04:34:14;7.47;;;5.80;;
21769;SDS011;11046;49.558;8.674;2022-08-18T04:37:16;9.55;;;5.82;;
21769;SDS011;11046;49.558;8.674;2022-08-18T04:40:17;7.88;;;5.75;;
21769;SDS011;11046;49.558;8.674;2022-08-18T04:43:17;9.27;;;5.50;;
21769;SDS011;11046;49.558;8.674;2022-08-18T04:46:18;7.00;;;5.80;;
21769;SDS011;11046;49.558;8.674;2022-08-18T04:49:20;9.23;;;5.97;;
21769;SDS011;11046;49.558;8.674;2022-08-18T04:52:24;10.00;;;5.80;;
21769;SDS011;11046;49.558;8.674;2022-08-18T04:55:47;8.02;;;5.80;;
21769;SDS011;11046;49.558;8.674;2022-08-18T04:58:53;8.02;;;5.50;;
21769;SDS011;11046;49.558;8.674;2022-08-18T05:01:59;6.93;;;5.43;;
21769;SDS011;11046;49.558;8.674;2022-08-18T05:05:01;8.55;;;6.05;;
21769;SDS011;11046;49.558;8.674;2022-08-18T05:08:03;8.63;;;6.47;;
21769;SDS011;11046;49.558;8.674;2022-08-18T05:11:04;8.07;;;6.35;;
21769;SDS011;11046;49.558;8.674;2022-08-18T05:14:05;10.20;;;6.30;;
21769;SDS011;11046;49.558;8.674;2022-08-18T05:17:07;7.60;;;5.82;;
21769;SDS011;11046;49.558;8.674;2022-08-18T05:20:10;8.75;;;6.43;;
21769;SDS011;11046;49.558;8.674;2022-08-18T05:23:11;11.38;;;6.32;;
21769;SDS011;11046;49.558;8.674;2022-08-18T05:26:18;8.15;;;6.13;;
21769;SDS011;11046;49.558;8.674;2022-08-18T05:29:22;7.85;;;6.13;;
21769;SDS011;11046;49.558;8.674;2022-08-18T05:32:25;8.35;;;6.25;;
21769;SDS011;11046;49.558;8.674;2022-08-18T05:35:35;11.52;;;6.63;;
21769;SDS011;11046;49.558;8.674;2022-08-18T05:42:10;8.02;;;6.10;;
21769;SDS011;11046;49.558;8.674;2022-08-18T05:45:48;9.98;;;6.00;;
21769;SDS011;11046;49.558;8.674;2022-08-18T05:49:27;8.07;;;6.18;;
21769;SDS011;11046;49.558;8.674;2022-08-18T05:52:42;7.40;;;5.85;;
21769;SDS011;11046;49.558;8.674;2022-08-18T05:56:06;8.85;;;6.38;;
21769;SDS011;11046;49.558;8.674;2022-08-18T05:59:41;10.50;;;6.72;;
21769;SDS011;11046;49.558;8.674;2022-08-18T06:02:50;6.88;;;6.00;;
21769;SDS011;11046;49.558;8.674;2022-08-18T06:06:14;7.85;;;6.00;;
21769;SDS011;11046;49.558;8.674;2022-08-18T06:09:25;8.63;;;6.93;;
21769;SDS011;11046;49.558;8.674;2022-08-18T06:13:00;8.73;;;6.63;;
21769;SDS011;11046;49.558;8.674;2022-08-18T06:23:34;11.02;;;6.97;;
21769;SDS011;11046;49.558;8.674;2022-08-18T06:30:55;8.13;;;7.00;;
21769;SDS011;11046;49.558;8.674;2022-08-18T06:41:32;12.60;;;7.30;;
21769;SDS011;11046;49.558;8.674;2022-08-18T06:44:44;10.38;;;6.93;;
21769;SDS011;11046;49.558;8.674;2022-08-18T06:47:51;7.63;;;6.80;;
21769;SDS011;11046;49.558;8.674;2022-08-18T06:50:59;13.00;;;7.53;;
21769;SDS011;11046;49.558;8.674;2022-08-18T06:54:03;8.32;;;6.72;;
21769;SDS011;11046;49.558;8.674;2022-08-18T06:57:06;11.50;;;7.97;;
21769;SDS011;11046;49.558;8.674;2022-08-18T07:03:53;8.82;;;7.03;;
21769;SDS011;11046;49.558;8.674;2022-08-18T07:06:55;13.15;;;7.10;;
21769;SDS011;11046;49.558;8.674;2022-08-18T07:09:56;11.57;;;6.88;;
21769;SDS011;11046;49.558;8.674;2022-08-18T07:13:07;11.73;;;7.50;;
21769;SDS011;11046;49.558;8.674;2022-08-18T07:16:15;11.43;;;7.55;;
21769;SDS011;11046;49.558;8.674;2022-08-18T07:19:26;11.35;;;8.32;;
21769;SDS011;11046;49.558;8.674;2022-08-18T07:22:28;9.38;;;7.30;;
21769;SDS011;11046;49.558;8.674;2022-08-18T07:25:30;10.43;;;8.15;;
21769;SDS011;11046;49.558;8.674;2022-08-18T07:28:46;12.40;;;8.43;;
21769;SDS011;11046;49.558;8.674;2022-08-18T07:31:48;10.52;;;7.85;;
21769;SDS011;11046;49.558;8.674;2022-08-18T07:34:52;11.63;;;7.60;;
21769;SDS011;11046;49.558;8.674;2022-08-18T07:37:59;12.98;;;6.97;;
21769;SDS011;11046;49.558;8.674;2022-08-18T07:41:05;12.13;;;7.60;;
21769;SDS011;11046;49.558;8.674;2022-08-18T07:47:29;9.80;;;7.47;;
21769;SDS011;11046;49.558;8.674;2022-08-18T07:53:58;14.88;;;7.70;;
21769;SDS011;11046;49.558;8.674;2022-08-18T08:00:38;16.70;;;8.55;;
21769;SDS011;11046;49.558;8.674;2022-08-18T08:03:51;17.77;;;8.20;;
21769;SDS011;11046;49.558;8.674;2022-08-18T08:07:16;11.15;;;8.95;;
21769;SDS011;11046;49.558;8.674;2022-08-18T08:10:41;13.63;;;8.55;;
21769;SDS011;11046;49.558;8.674;2022-08-18T08:14:09;13.57;;;9.43;;
21769;SDS011;11046;49.558;8.674;2022-08-18T08:17:29;12.10;;;8.75;;
21769;SDS011;11046;49.558;8.674;2022-08-18T08:20:56;15.02;;;9.82;;
21769;SDS011;11046;49.558;8.674;2022-08-18T08:24:19;17.27;;;9.25;;
21769;SDS011;11046;49.558;8.674;2022-08-18T08:27:33;12.90;;;8.70;;
21769;SDS011;11046;49.558;8.674;2022-08-18T08:31:10;13.23;;;8.80;;
21769;SDS011;11046;49.558;8.674;2022-08-18T08:34:32;13.25;;;8.60;;
21769;SDS011;11046;49.558;8.674;2022-08-18T08:37:57;13.63;;;8.20;;
21769;SDS011;11046;49.558;8.674;2022-08-18T08:41:28;14.10;;;7.80;;
21769;SDS011;11046;49.558;8.674;2022-08-18T08:44:34;10.70;;;7.50;;
21769;SDS011;11046;49.558;8.674;2022-08-18T08:50:57;13.50;;;8.32;;
21769;SDS011;11046;49.558;8.674;2022-08-18T08:54:10;12.98;;;8.55;;
21769;SDS011;11046;49.558;8.674;2022-08-18T08:57:18;11.18;;;8.65;;
21769;SDS011;11046;49.558;8.674;2022-08-18T09:00:24;13.15;;;8.43;;
21769;SDS011;11046;49.558;8.674;2022-08-18T09:03:46;12.32;;;8.65;;
21769;SDS011;11046;49.558;8.674;2022-08-18T09:23:34;17.92;;;9.55;;
21769;SDS011;11046;49.558;8.674;2022-08-18T09:26:46;14.93;;;9.52;;
21769;SDS011;11046;49.558;8.674;2022-08-18T09:29:53;13.82;;;10.02;;
21769;SDS011;11046;49.558;8.674;2022-08-18T09:39:38;13.48;;;10.20;;
21769;SDS011;11046;49.558;8.674;2022-08-18T09:43:25;17.45;;;11.43;;
21769;SDS011;11046;49.558;8.674;2022-08-18T09:52:57;18.33;;;11.40;;
21769;SDS011;11046;49.558;8.674;2022-08-18T09:56:13;18.55;;;12.20;;
21769;SDS011;11046;49.558;8.674;2022-08-18T10:05:32;15.52;;;10.43;;
21769;SDS011;11046;49.558;8.674;2022-08-18T10:08:54;16.33;;;11.27;;
21769;SDS011;11046;49.558;8.674;2022-08-18T10:19:34;14.82;;;10.98;;
21769;SDS011;11046;49.558;8.674;2022-08-18T10:22:48;12.80;;;10.50;;
21769;SDS011;11046;49.558;8.674;2022-08-18T10:25:49;19.33;;;10.80;;
21769;SDS011;11046;49.558;8.674;2022-08-18T10:28:53;15.65;;;10.65;;
21769;SDS011;11046;49.558;8.674;2022-08-18T10:34:58;14.85;;;10.13;;
21769;SDS011;11046;49.558;8.674;2022-08-18T10:41:28;14.50;;;9.40;;
21769;SDS011;11046;49.558;8.674;2022-08-18T10:44:31;14.68;;;9.95;;
21769;SDS011;11046;49.558;8.674;2022-08-18T10:47:35;15.25;;;9.70;;
21769;SDS011;11046;49.558;8.674;2022-08-18T10:50:47;12.57;;;10.23;;
21769;SDS011;11046;49.558;8.674;2022-08-18T10:53:51;14.95;;;11.52;;
21769;SDS011;11046;49.558;8.674;2022-08-18T10:57:14;17.38;;;10.60;;
21769;SDS011;11046;49.558;8.674;2022-08-18T11:00:37;13.38;;;9.70;;
21769;SDS011;11046;49.558;8.674;2022-08-18T11:04:04;14.85;;;10.70;;
21769;SDS011;11046;49.558;8.674;2022-08-18T11:07:26;14.35;;;10.65;;
21769;SDS011;11046;49.558;8.674;2022-08-18T11:13:50;14.07;;;10.48;;
21769;SDS011;11046;49.558;8.674;2022-08-18T11:20:31;11.73;;;9.27;;
21769;SDS011;11046;49.558;8.674;2022-08-18T11:23:32;11.43;;;9.80;;
21769;SDS011;11046;49.558;8.674;2022-08-18T11:26:33;11.77;;;9.43;;
21769;SDS011;11046;49.558;8.674;2022-08-18T11:29:38;18.40;;;10.43;;
21769;SDS011;11046;49.558;8.674;2022-08-18T11:32:40;14.52;;;10.65;;
21769;SDS011;11046;49.558;8.674;2022-08-18T11:35:46;12.77;;;9.80;;
21769;SDS011;11046;49.558;8.674;2022-08-18T11:38:55;10.55;;;9.43;;
21769;SDS011;11046;49.558;8.674;2022-08-18T11:41:56;15.23;;;10.45;;
21769;SDS011;11046;49.558;8.674;2022-08-18T11:45:12;11.48;;;9.40;;
21769;SDS011;11046;49.558;8.674;2022-08-18T11:51:33;15.02;;;9.55;;
21769;SDS011;11046;49.558;8.674;2022-08-18T11:54:37;12.65;;;10.55;;
21769;SDS011;11046;49.558;8.674;2022-08-18T11:57:50;13.20;;;10.02;;
21769;SDS011;11046;49.558;8.674;2022-08-18T12:00:54;13.93;;;10.50;;
21769;SDS011;11046;49.558;8.674;2022-08-18T12:03:57;13.93;;;11.25;;
21769;SDS011;11046;49.558;8.674;2022-08-18T12:07:25;12.68;;;10.60;;
21769;SDS011;11046;49.558;8.674;2022-08-18T12:10:28;14.05;;;11.20;;
21769;SDS011;11046;49.558;8.674;2022-08-18T12:13:28;13.43;;;9.95;;
21769;SDS011;11046;49.558;8.674;2022-08-18T12:16:34;10.82;;;9.40;;
21769;SDS011;11046;49.558;8.674;2022-08-18T12:19:35;12.20;;;10.30;;
21769;SDS011;11046;49.558;8.674;2022-08-18T12:22:37;10.20;;;9.02;;
21769;SDS011;11046;49.558;8.674;2022-08-18T12:25:39;11.82;;;10.43;;
21769;SDS011;11046;49.558;8.674;2022-08-18T12:28:40;14.98;;;12.00;;
21769;SDS011;11046;49.558;8.674;2022-08-18T12:31:41;16.15;;;12.50;;
21769;SDS011;11046;49.558;8.674;2022-08-18T12:34:41;19.55;;;15.98;;
21769;SDS011;11046;49.558;8.674;2022-08-18T12:37:43;21.75;;;16.63;;
21769;SDS011;11046;49.558;8.674;2022-08-18T12:40:44;23.13;;;18.13;;
21769;SDS011;11046;49.558;8.674;2022-08-18T12:43:44;17.52;;;15.23;;
21769;SDS011;11046;49.558;8.674;2022-08-18T12:46:46;18.48;;;15.20;;
21769;SDS011;11046;49.558;8.674;2022-08-18T12:49:48;28.02;;;19.35;;
21769;SDS011;11046;49.558;8.674;2022-08-18T12:52:49;23.70;;;18.90;;
21769;SDS011;11046;49.558;8.674;2022-08-18T12:55:49;22.42;;;17.10;;
21769;SDS011;11046;49.558;8.674;2022-08-18T12:58:51;23.75;;;17.85;;
21769;SDS011;11046;49.558;8.674;2022-08-18T13:01:52;21.98;;;18.55;;
21769;SDS011;11046;49.558;8.674;2022-08-18T13:04:53;25.05;;;21.63;;
21769;SDS011;11046;49.558;8.674;2022-08-18T13:07:55;25.13;;;20.10;;
21769;SDS011;11046;49.558;8.674;2022-08-18T13:10:57;26.00;;;20.17;;
21769;SDS011;11046;49.558;8.674;2022-08-18T13:13:59;24.38;;;17.08;;
21769;SDS011;11046;49.558;8.674;2022-08-18T13:17:01;25.27;;;19.48;;
21769;SDS011;11046;49.558;8.674;2022-08-18T13:20:12;21.27;;;16.25;;
21769;SDS011;11046;49.558;8.674;2022-08-18T13:23:14;19.52;;;15.65;;
21769;SDS011;11046;49.558;8.674;2022-08-18T13:26:17;15.88;;;14.23;;
21769;SDS011;11046;49.558;8.674;2022-08-18T13:29:24;22.08;;;18.83;;
21769;SDS011;11046;49.558;8.674;2022-08-18T13:32:25;19.50;;;16.73;;
21769;SDS011;11046;49.558;8.674;2022-08-18T13:35:26;16.30;;;14.10;;
21769;SDS011;11046;49.558;8.674;2022-08-18T13:38:28;22.10;;;14.75;;
21769;SDS011;11046;49.558;8.674;2022-08-18T13:41:28;18.08;;;15.82;;
21769;SDS011;11046;49.558;8.674;2022-08-18T13:44:30;16.80;;;14.63;;
21769;SDS011;11046;49.558;8.674;2022-08-18T13:47:31;22.02;;;17.13;;
21769;SDS011;11046;49.558;8.674;2022-08-18T13:50:32;19.35;;;17.25;;
21769;SDS011;11046;49.558;8.674;2022-08-18T13:53:34;18.45;;;16.40;;
21769;SDS011;11046;49.558;8.674;2022-08-18T13:56:36;16.95;;;14.07;;
21769;SDS011;11046;49.558;8.674;2022-08-18T13:59:36;17.80;;;14.75;;
21769;SDS011;11046;49.558;8.674;2022-08-18T14:02:37;17.42;;;13.55;;
21769;SDS011;11046;49.558;8.674;2022-08-18T14:05:39;17.00;;;15.20;;
21769;SDS011;11046;49.558;8.674;2022-08-18T14:08:39;17.80;;;14.95;;
21769;SDS011;11046;49.558;8.674;2022-08-18T14:11:40;19.15;;;14.43;;
21769;SDS011;11046;49.558;8.674;2022-08-18T14:14:40;17.40;;;15.52;;
21769;SDS011;11046;49.558;8.674;2022-08-18T14:17:41;16.52;;;14.77;;
21769;SDS011;11046;49.558;8.674;2022-08-18T14:20:42;17.85;;;14.90;;
21769;SDS011;11046;49.558;8.674;2022-08-18T14:24:01;14.88;;;11.90;;
21769;SDS011;11046;49.558;8.674;2022-08-18T14:27:25;15.50;;;13.23;;
21769;SDS011;11046;49.558;8.674;2022-08-18T14:30:34;14.98;;;12.95;;
21769;SDS011;11046;49.558;8.674;2022-08-18T14:33:36;14.48;;;12.98;;
21769;SDS011;11046;49.558;8.674;2022-08-18T14:36:37;18.23;;;12.60;;
21769;SDS011;11046;49.558;8.674;2022-08-18T14:39:37;16.15;;;12.50;;
21769;SDS011;11046;49.558;8.674;2022-08-18T14:42:38;16.30;;;12.90;;
21769;SDS011;11046;49.558;8.674;2022-08-18T14:45:41;15.10;;;12.32;;
21769;SDS011;11046;49.558;8.674;2022-08-18T14:48:47;16.33;;;13.50;;
21769;SDS011;11046;49.558;8.674;2022-08-18T14:51:48;16.95;;;13.70;;
21769;SDS011;11046;49.558;8.674;2022-08-18T14:54:49;14.10;;;12.55;;
21769;SDS011;11046;49.558;8.674;2022-08-18T14:57:50;16.65;;;12.25;;
21769;SDS011;11046;49.558;8.674;2022-08-18T15:00:51;15.20;;;12.35;;
21769;SDS011;11046;49.558;8.674;2022-08-18T15:03:52;12.68;;;10.60;;
21769;SDS011;11046;49.558;8.674;2022-08-18T15:06:53;11.45;;;9.93;;
21769;SDS011;11046;49.558;8.674;2022-08-18T15:09:54;11.88;;;10.10;;
21769;SDS011;11046;49.558;8.674;2022-08-18T15:12:54;12.27;;;10.15;;
21769;SDS011;11046;49.558;8.674;2022-08-18T15:15:59;11.23;;;9.45;;
21769;SDS011;11046;49.558;8.674;2022-08-18T15:19:00;12.05;;;9.27;;
21769;SDS011;11046;49.558;8.674;2022-08-18T15:22:02;11.20;;;9.35;;
21769;SDS011;11046;49.558;8.674;2022-08-18T15:25:21;12.00;;;9.52;;
21769;SDS011;11046;49.558;8.674;2022-08-18T15:28:41;12.10;;;9.23;;
21769;SDS011;11046;49.558;8.674;2022-08-18T15:31:41;11.48;;;9.00;;
21769;SDS011;11046;49.558;8.674;2022-08-18T15:34:42;12.05;;;9.40;;
21769;SDS011;11046;49.558;8.674;2022-08-18T15:37:44;13.20;;;10.05;;
21769;SDS011;11046;49.558;8.674;2022-08-18T15:40:47;11.45;;;9.77;;
21769;SDS011;11046;49.558;8.674;2022-08-18T15:43:49;13.65;;;10.10;;
21769;SDS011;11046;49.558;8.674;2022-08-18T15:46:50;10.82;;;9.60;;
21769;SDS011;11046;49.558;8.674;2022-08-18T15:49:51;12.40;;;9.40;;
21769;SDS011;11046;49.558;8.674;2022-08-18T15:52:53;11.00;;;9.13;;
21769;SDS011;11046;49.558;8.674;2022-08-18T15:55:56;11.93;;;8.98;;
21769;SDS011;11046;49.558;8.674;2022-08-18T15:58:57;12.25;;;9.63;;
21769;SDS011;11046;49.558;8.674;2022-08-18T16:02:03;12.23;;;9.35;;
21769;SDS011;11046;49.558;8.674;2022-08-18T16:05:05;17.45;;;8.30;;
21769;SDS011;11046;49.558;8.674;2022-08-18T16:08:08;13.48;;;8.70;;
21769;SDS011;11046;49.558;8.674;2022-08-18T16:11:10;10.20;;;8.75;;
21769;SDS011;11046;49.558;8.674;2022-08-18T16:14:11;11.05;;;7.57;;
21769;SDS011;11046;49.558;8.674;2022-08-18T16:17:13;10.65;;;9.05;;
21769;SDS011;11046;49.558;8.674;2022-08-18T16:20:16;10.68;;;8.50;;
21769;SDS011;11046;49.558;8.674;2022-08-18T16:23:18;11.93;;;8.20;;
21769;SDS011;11046;49.558;8.674;2022-08-18T16:26:19;11.13;;;8.52;;
21769;SDS011;11046;49.558;8.674;2022-08-18T16:29:20;12.30;;;8.68;;
21769;SDS011;11046;49.558;8.674;2022-08-18T16:32:21;10.93;;;8.65;;
21769;SDS011;11046;49.558;8.674;2022-08-18T16:35:21;10.98;;;8.55;;
21769;SDS011;11046;49.558;8.674;2022-08-18T16:38:22;12.07;;;8.82;;
21769;SDS011;11046;49.558;8.674;2022-08-18T16:41:24;10.82;;;8.57;;
21769;SDS011;11046;49.558;8.674;2022-08-18T16:44:25;9.88;;;8.77;;
21769;SDS011;11046;49.558;8.674;2022-08-18T16:47:28;13.95;;;8.32;;
21769;SDS011;11046;49.558;8.674;2022-08-18T16:50:31;10.75;;;9.27;;
21769;SDS011;11046;49.558;8.674;2022-08-18T16:53:32;12.02;;;8.38;;
21769;SDS011;11046;49.558;8.674;2022-08-18T16:56:32;10.02;;;8.80;;
21769;SDS011;11046;49.558;8.674;2022-08-18T16:59:35;10.40;;;9.15;;
21769;SDS011;11046;49.558;8.674;2022-08-18T17:02:55;10.30;;;9.13;;
21769;SDS011;11046;49.558;8.674;2022-08-18T17:06:16;13.60;;;8.20;;
21769;SDS011;11046;49.558;8.674;2022-08-18T17:09:18;12.27;;;8.77;;
21769;SDS011;11046;49.558;8.674;2022-08-18T17:12:19;13.02;;;9.07;;
21769;SDS011;11046;49.558;8.674;2022-08-18T17:15:20;11.13;;;8.43;;
21769;SDS011;11046;49.558;8.674;2022-08-18T17:18:21;9.63;;;7.93;;
21769;SDS011;11046;49.558;8.674;2022-08-18T17:21:24;10.18;;;7.90;;
21769;SDS011;11046;49.558;8.674;2022-08-18T17:24:28;10.05;;;7.97;;
21769;SDS011;11046;49.558;8.674;2022-08-18T17:27:32;10.05;;;7.75;;
21769;SDS011;11046;49.558;8.674;2022-08-18T17:30:35;8.45;;;7.25;;
21769;SDS011;11046;49.558;8.674;2022-08-18T17:33:45;8.30;;;7.43;;
21769;SDS011;11046;49.558;8.674;2022-08-18T17:36:47;8.50;;;7.60;;
21769;SDS011;11046;49.558;8.674;2022-08-18T17:39:52;11.73;;;7.30;;
21769;SDS011;11046;49.558;8.674;2022-08-18T17:42:59;8.10;;;7.30;;
21769;SDS011;11046;49.558;8.674;2022-08-18T17:46:03;8.98;;;7.53;;
21769;SDS011;11046;49.558;8.674;2022-08-18T17:49:11;10.95;;;7.43;;
21769;SDS011;11046;49.558;8.674;2022-08-18T17:52:54;8.85;;;7.88;;
21769;SDS011;11046;49.558;8.674;2022-08-18T17:56:11;8.02;;;7.13;;
21769;SDS011;11046;49.558;8.674;2022-08-18T17:59:26;12.80;;;7.97;;
21769;SDS011;11046;49.558;8.674;2022-08-18T18:02:31;9.52;;;7.38;;
21769;SDS011;11046;49.558;8.674;2022-08-18T18:05:43;10.32;;;8.13;;
21769;SDS011;11046;49.558;8.674;2022-08-18T18:09:02;10.02;;;8.32;;
21769;SDS011;11046;49.558;8.674;2022-08-18T18:12:22;10.20;;;9.00;;
21769;SDS011;11046;49.558;8.674;2022-08-18T18:15:29;13.65;;;10.15;;
21769;SDS011;11046;49.558;8.674;2022-08-18T18:18:37;13.88;;;11.27;;
21769;SDS011;11046;49.558;8.674;2022-08-18T18:21:42;15.95;;;11.32;;
21769;SDS011;11046;49.558;8.674;2022-08-18T18:24:53;13.10;;;10.68;;
21769;SDS011;11046;49.558;8.674;2022-08-18T18:27:58;16.08;;;11.60;;
21769;SDS011;11046;49.558;8.674;2022-08-18T18:31:15;17.38;;;12.07;;
21769;SDS011;11046;49.558;8.674;2022-08-18T18:37:30;18.88;;;11.85;;
21769;SDS011;11046;49.558;8.674;2022-08-18T18:40:35;17.55;;;11.85;;
21769;SDS011;11046;49.558;8.674;2022-08-18T18:43:39;16.08;;;11.48;;
21769;SDS011;11046;49.558;8.674;2022-08-18T18:46:44;14.95;;;11.50;;
21769;SDS011;11046;49.558;8.674;2022-08-18T18:49:49;14.57;;;11.43;;
21769;SDS011;11046;49.558;8.674;2022-08-18T18:53:06;14.82;;;11.60;;
21769;SDS011;11046;49.558;8.674;2022-08-18T19:00:07;14.90;;;11.02;;
21769;SDS011;11046;49.558;8.674;2022-08-18T19:06:50;14.90;;;11.48;;
21769;SDS011;11046;49.558;8.674;2022-08-18T19:09:59;20.70;;;11.70;;
21769;SDS011;11046;49.558;8.674;2022-08-18T19:13:09;15.98;;;11.98;;
21769;SDS011;11046;49.558;8.674;2022-08-18T19:16:18;15.52;;;11.95;;
21769;SDS011;11046;49.558;8.674;2022-08-18T19:23:04;16.38;;;11.95;;
21769;SDS011;11046;49.558;8.674;2022-08-18T19:26:13;17.50;;;11.45;;
21769;SDS011;11046;49.558;8.674;2022-08-18T19:29:23;16.15;;;11.82;;
21769;SDS011;11046;49.558;8.674;2022-08-18T19:32:32;15.48;;;12.00;;
21769;SDS011;11046;49.558;8.674;2022-08-18T19:39:07;13.35;;;11.73;;
21769;SDS011;11046;49.558;8.674;2022-08-18T19:45:43;16.92;;;12.30;;
21769;SDS011;11046;49.558;8.674;2022-08-18T19:48:51;16.83;;;12.65;;
21769;SDS011;11046;49.558;8.674;2022-08-18T19:52:06;15.80;;;11.80;;
21769;SDS011;11046;49.558;8.674;2022-08-18T19:55:23;16.48;;;11.48;;
21769;SDS011;11046;49.558;8.674;2022-08-18T20:12:01;15.85;;;13.18;;
21769;SDS011;11046;49.558;8.674;2022-08-18T20:15:12;15.38;;;12.45;;
21769;SDS011;11046;49.558;8.674;2022-08-18T20:18:21;17.65;;;12.95;;
21769;SDS011;11046;49.558;8.674;2022-08-18T20:21:33;18.27;;;14.15;;
21769;SDS011;11046;49.558;8.674;2022-08-18T20:24:44;19.42;;;13.63;;
21769;SDS011;11046;49.558;8.674;2022-08-18T20:27:50;21.55;;;14.27;;
21769;SDS011;11046;49.558;8.674;2022-08-18T20:30:57;17.83;;;13.35;;
21769;SDS011;11046;49.558;8.674;2022-08-18T20:34:11;17.75;;;13.40;;
21769;SDS011;11046;49.558;8.674;2022-08-18T20:37:18;20.52;;;14.52;;
21769;SDS011;11046;49.558;8.674;2022-08-18T20:40:44;19.13;;;14.35;;
21769;SDS011;11046;49.558;8.674;2022-08-18T20:43:50;18.73;;;13.90;;